This is the latest recevied weather packets stored in our database for station/object VE3EP-1. If no packets are shown the sender has not sent any weather packets the latest 1 day(s).
| Time | Temp. | Humidity | Pressure | Rain* | Wind** | Luminosity | Snow |
|---|---|---|---|---|---|---|---|
| 1778036528 | 6.11° C | 95% | 1012.7 hPa | 1.52 mm | 0.45 m/s, 230° | - | - |
| 1778035929 | 6.11° C | 94% | 1012.5 hPa | 1.78 mm | 0.89 m/s, 214° | - | - |
| 1778035331 | 6.67° C | 94% | 1012.4 hPa | 2.03 mm | 0.45 m/s, 210° | - | - |
| 1778034729 | 6.67° C | 94% | 1012.7 hPa | 1.52 mm | 0.45 m/s, 256° | - | - |
| 1778034129 | 6.67° C | 93% | 1012.9 hPa | 1.02 mm | 0.89 m/s, 259° | - | - |
| 1778033529 | 6.67° C | 92% | 1013 hPa | 0.76 mm | 0.89 m/s, 257° | - | - |
| 1778032928 | 6.67° C | 92% | 1012.6 hPa | 0.51 mm | 0.45 m/s, 249° | - | - |
| 1778032328 | 6.67° C | 91% | 1012.3 hPa | 0.25 mm | 0.45 m/s, 242° | - | - |
| 1778031730 | 7.22° C | 91% | 1012.2 hPa | 0.25 mm | 0.89 m/s, 246° | - | - |
| 1778031128 | 7.22° C | 91% | 1012.3 hPa | 0.25 mm | 0.89 m/s, 254° | - | - |
| 1778029928 | 7.22° C | 90% | 1011.7 hPa | 0.51 mm | 0.45 m/s, 267° | - | - |
| 1778029328 | 7.22° C | 91% | 1011.5 hPa | 0.76 mm | 0 m/s | - | - |
| 1778028728 | 7.22° C | 91% | 1011.1 hPa | 0.76 mm | 0 m/s | - | - |
| 1778027528 | 7.78° C | 91% | 1011 hPa | 1.02 mm | 0 m/s | - | - |
| 1778026928 | 7.78° C | 89% | 1010.8 hPa | 1.27 mm | 0 m/s | - | - |
| 1778026328 | 7.78° C | 89% | 1010.8 hPa | 1.02 mm | 0 m/s | - | - |
| 1778025728 | 7.78° C | 87% | 1011.1 hPa | 0.76 mm | 0 m/s | - | - |
| 1778025128 | 7.78° C | 85% | 1011 hPa | 0.76 mm | 0.45 m/s, 23° | - | - |
| 1778024528 | 7.78° C | 85% | 1010.9 hPa | 0.76 mm | 0.45 m/s, 13° | - | - |
| 1778023928 | 7.78° C | 86% | 1010.7 hPa | 0.76 mm | 0.45 m/s, 10° | - | - |
| 1778023328 | 7.78° C | 85% | 1010.4 hPa | 0.76 mm | 0.45 m/s, 20° | - | - |
| 1778022128 | 8.33° C | 84% | 1010 hPa | 1.02 mm | 0.89 m/s, 23° | - | - |
| 1778021528 | 8.33° C | 85% | 1010.4 hPa | 1.02 mm | 1.34 m/s, 22° | - | - |
| 1778020929 | 8.89° C | 84% | 1010.2 hPa | 0.76 mm | 1.34 m/s, 22° | - | - |
| 1778020328 | 9.44° C | 83% | 1010.1 hPa | 0.51 mm | 1.34 m/s, 19° | - | - |
* Rain latest hour (hover to see other rain measurements)
** Current wind speed in m/s (hover to see current wind gust speed)